Fry, Arizona
Current Conditions -  °F | °C
As of 2:55 AM on Monday 20 Oct 2014 (Local Time) from KFHU Reporting Station
Clear Clear  
Wind Chill: 55°   Ceiling: Unl
Heat Index: 55°   Visibility: 10mi
Dew Point: 45°   Wind: 5mph
Humidity: 67%   Direction: 120°ESE
Pressure: 30.04"   Gusts: NA
Location:  31.5289°N, 110.258°W
Report Text: KFHU 200955Z 12004KT 10SM CLR 13/07 A3004 RMK SLP123
Loading
Personal Weather Stations






























Interactive Weather Map New forecast layout! Learn more

10-Day Weather Forecast

Advertisements
Track Severe Weather on mobile